Time;durP1;ratioP1;P1;durP2;ratioP2;P2;SDS_P1;SDS_P2;PMS_P1;PMS_P2;Temp;Humidity;BMP_temperature;BMP_pressure;BME280_temperature;BME280_humidity;BME280_pressure;Samples;Min_cycle;Max_cycle;Signal;HPM_P1;HPM_P2
2022/12/15 00:38:43;;;;;;;0.20;0.20;;;;;;;-3.94;100.00;95337.13;5068530;28;20580;-72
2022/12/15 00:41:29;;;;;;;0.20;0.20;;;;;;;-4.07;100.00;95339.59;5074548;28;20039;-72
2022/12/15 00:44:15;;;;;;;0.20;0.20;;;;;;;-4.09;100.00;95333.75;5055839;28;20319;-73
2022/12/15 00:47:00;;;;;;;0.20;0.20;;;;;;;-4.07;100.00;95344.00;5059611;28;20043;-72
2022/12/15 01:20:55;;;;;;;0.20;0.20;;;;;;;-4.06;100.00;95387.44;5011359;28;20198;-68
2022/12/15 01:23:41;;;;;;;0.20;0.20;;;;;;;-4.03;100.00;95385.28;5012922;28;20545;-72
2022/12/15 01:26:27;;;;;;;0.20;0.20;;;;;;;-4.06;100.00;95387.44;5027061;28;20127;-72
2022/12/15 01:29:13;;;;;;;0.20;0.20;;;;;;;-4.40;100.00;95395.88;5054879;28;20101;-72
2022/12/15 01:31:58;;;;;;;0.20;0.20;;;;;;;-4.44;100.00;95384.97;5050655;28;20453;-72
2022/12/15 01:34:44;;;;;;;0.20;0.20;;;;;;;-4.44;100.00;95390.19;5050731;28;20041;-72
2022/12/15 01:37:33;;;;;;;0.20;0.20;;;;;;;-4.90;100.00;95390.38;5050794;28;20559;-72
2022/12/15 01:43:33;;;;;;;0.20;0.20;;;;;;;-5.26;100.00;95405.06;5054218;28;20025;-71
2022/12/15 01:46:22;;;;;;;0.20;0.20;;;;;;;-5.12;100.00;95406.91;5052273;28;20113;-72
2022/12/15 01:49:16;;;;;;;0.17;0.17;;;;;;;-5.08;100.00;95408.97;5051710;28;20522;-72
2022/12/15 01:52:05;;;;;;;0.20;0.20;;;;;;;-5.05;100.00;95397.38;5051800;28;20029;-72
2022/12/15 01:54:56;;;;;;;0.20;0.20;;;;;;;-4.79;100.00;95412.63;5067123;28;20101;-73
2022/12/15 01:57:45;;;;;;;0.22;0.22;;;;;;;-4.80;100.00;95400.56;5072766;28;20256;-70
2022/12/15 02:00:33;;;;;;;0.20;0.20;;;;;;;-4.88;100.00;95404.06;5073597;28;20074;-72
2022/12/15 02:03:19;;;;;;;0.20;0.20;;;;;;;-4.60;100.00;95406.03;5072372;27;20119;-72
2022/12/15 02:06:07;;;;;;;0.20;0.20;;;;;;;-4.45;100.00;95414.69;5054978;28;20347;-70
2022/12/15 02:08:55;;;;;;;0.20;0.20;;;;;;;-4.32;100.00;95414.06;5055978;28;20048;-70
2022/12/15 02:11:53;;;;;;;0.25;0.25;;;;;;;-4.26;100.00;95426.41;5073983;28;20209;-73
2022/12/15 02:14:53;;;;;;;0.20;0.20;;;;;;;-4.31;100.00;95432.16;5071736;28;20047;-71
2022/12/15 02:17:57;;;;;;;0.20;0.20;;;;;;;-4.22;100.00;95430.25;5063627;28;20360;-72
2022/12/15 02:21:08;;;;;;;0.20;0.20;;;;;;;-4.34;100.00;95429.13;5071241;28;20582;-69
2022/12/15 02:24:13;;;;;;;0.30;0.30;;;;;;;-4.44;100.00;95431.97;5071320;28;20396;-71
2022/12/15 02:27:33;;;;;;;0.20;0.20;;;;;;;-4.28;100.00;95429.19;5073186;28;20036;-73
2022/12/15 02:30:25;;;;;;;0.20;0.20;;;;;;;-4.20;100.00;95436.13;5045078;28;20904;-72
2022/12/15 02:33:18;;;;;;;0.20;0.20;;;;;;;-4.26;100.00;95431.63;5052699;28;20246;-72
2022/12/15 02:36:33;;;;;;;0.20;0.20;;;;;;;-4.25;100.00;95441.88;5074023;28;20075;-72
2022/12/15 02:39:19;;;;;;;0.10;0.10;;;;;;;-4.28;100.00;95444.88;5058166;28;20051;-72
2022/12/15 02:42:05;;;;;;;0.20;0.20;;;;;;;-4.25;100.00;95448.91;5061103;28;20423;-72
2022/12/15 02:45:00;;;;;;;0.10;0.10;;;;;;;-4.30;100.00;95449.44;5082187;27;20553;-71
2022/12/15 02:48:11;;;;;;;0.20;0.20;;;;;;;-4.41;100.00;95449.09;5073527;28;20376;-71
2022/12/15 02:51:25;;;;;;;0.20;0.20;;;;;;;-4.69;100.00;95451.50;5070521;28;20055;-71
2022/12/15 02:54:14;;;;;;;0.20;0.20;;;;;;;-4.71;100.00;95458.72;5073456;28;20047;-72
2022/12/15 02:57:04;;;;;;;0.20;0.20;;;;;;;-4.64;100.00;95457.00;5070546;28;20043;-70
2022/12/15 03:00:00;;;;;;;0.20;0.20;;;;;;;-4.63;100.00;95469.88;5072933;28;20705;-72
2022/12/15 03:02:51;;;;;;;0.28;0.28;;;;;;;-4.67;100.00;95468.63;5069616;28;20105;-69
2022/12/15 03:05:38;;;;;;;0.20;0.20;;;;;;;-4.63;100.00;95471.69;5070404;28;20193;-72
2022/12/15 03:08:26;;;;;;;0.20;0.20;;;;;;;-4.68;100.00;95459.16;5072426;28;20533;-69
2022/12/15 03:11:12;;;;;;;0.20;0.20;;;;;;;-4.73;100.00;95465.91;5057576;28;20667;-73
2022/12/15 03:13:58;;;;;;;0.20;0.20;;;;;;;-4.72;100.00;95467.53;5071068;28;20067;-71
2022/12/15 03:16:43;;;;;;;0.20;0.20;;;;;;;-4.64;100.00;95465.66;5072157;28;20410;-72
2022/12/15 03:19:29;;;;;;;0.20;0.20;;;;;;;-4.60;100.00;95476.53;5069252;28;20149;-72
2022/12/15 03:22:16;;;;;;;0.10;0.10;;;;;;;-4.68;100.00;95474.00;5069571;28;20612;-69
2022/12/15 03:25:03;;;;;;;0.10;0.10;;;;;;;-4.71;100.00;95477.00;5068469;28;20473;-70
2022/12/15 03:27:48;;;;;;;0.20;0.20;;;;;;;-4.77;100.00;95474.09;5067473;28;20054;-69
2022/12/15 03:30:34;;;;;;;0.20;0.20;;;;;;;-4.84;100.00;95475.78;5069487;28;20515;-73
2022/12/15 03:33:20;;;;;;;0.20;0.20;;;;;;;-4.76;100.00;95465.25;5069896;28;20351;-72
2022/12/15 03:36:07;;;;;;;0.20;0.20;;;;;;;-4.83;100.00;95469.56;5070586;28;20569;-72
2022/12/15 03:38:53;;;;;;;0.17;0.17;;;;;;;-4.92;100.00;95472.44;5055727;28;20038;-69
2022/12/15 03:41:40;;;;;;;0.20;0.20;;;;;;;-4.94;100.00;95477.84;5071124;28;20279;-72
2022/12/15 03:44:26;;;;;;;0.20;0.20;;;;;;;-4.94;100.00;95477.84;5084837;28;20399;-72
2022/12/15 03:47:12;;;;;;;0.20;0.20;;;;;;;-5.20;100.00;95465.19;5072230;28;20329;-71
2022/12/15 03:49:58;;;;;;;0.15;0.15;;;;;;;-5.14;100.00;95468.84;5069091;28;20488;-73
2022/12/15 03:52:44;;;;;;;0.20;0.20;;;;;;;-5.16;100.00;95478.66;5071505;28;20129;-71
2022/12/15 03:55:30;;;;;;;0.20;0.20;;;;;;;-5.17;100.00;95483.06;5070785;28;20044;-74
2022/12/15 03:58:16;;;;;;;0.20;0.20;;;;;;;-5.59;100.00;95467.91;5072010;28;20063;-73
2022/12/15 04:01:27;;;;;;;0.20;0.20;;;;;;;-5.36;100.00;95483.56;5069402;28;20557;-70
2022/12/15 04:04:14;;;;;;;0.20;0.20;;;;;;;-5.30;100.00;95476.81;5070244;28;20035;-73
2022/12/15 04:06:59;;;;;;;0.20;0.20;;;;;;;-5.27;100.00;95476.47;5070107;28;20141;-70
2022/12/15 04:09:48;;;;;;;0.20;0.20;;;;;;;-5.25;100.00;95477.91;5071492;28;20044;-73
2022/12/15 04:12:34;;;;;;;0.20;0.20;;;;;;;-5.12;100.00;95477.34;5070718;28;20150;-73
2022/12/15 04:15:20;;;;;;;0.20;0.20;;;;;;;-5.05;100.00;95478.28;5086982;27;20032;-73
2022/12/15 04:18:08;;;;;;;0.20;0.20;;;;;;;-5.02;100.00;95482.31;5067525;28;20098;-72
2022/12/15 04:20:54;;;;;;;0.17;0.17;;;;;;;-5.00;100.00;95494.19;5072119;28;20329;-72
2022/12/15 05:34:36;;;;;;;0.20;0.20;;;;;;;-5.45;100.00;95536.72;5071915;28;20520;-71
2022/12/15 05:37:21;;;;;;;0.20;0.20;;;;;;;-5.69;100.00;95550.69;5075521;28;20070;-72
2022/12/15 05:40:08;;;;;;;0.20;0.20;;;;;;;-5.80;100.00;95549.28;5076144;28;20048;-72
2022/12/15 05:42:57;;;;;;;0.17;0.17;;;;;;;-6.03;100.00;95549.22;5071499;28;20122;-70
2022/12/15 05:45:43;;;;;;;0.28;0.28;;;;;;;-6.19;100.00;95547.50;5073646;28;20493;-72
2022/12/15 05:48:29;;;;;;;0.20;0.20;;;;;;;-6.00;100.00;95548.06;5074968;28;20089;-71
2022/12/15 05:51:15;;;;;;;0.20;0.20;;;;;;;-5.74;100.00;95543.41;5073448;28;20326;-70
2022/12/15 05:54:01;;;;;;;0.25;0.25;;;;;;;-5.59;100.00;95532.25;5073126;28;20052;-72
2022/12/15 05:56:47;;;;;;;0.20;0.20;;;;;;;-5.48;100.00;95550.91;5073132;28;20810;-72
2022/12/15 05:59:33;;;;;;;0.20;0.20;;;;;;;-5.76;100.00;95547.94;5046700;28;20044;-72
2022/12/15 06:02:19;;;;;;;0.20;0.20;;;;;;;-5.58;100.00;95547.72;5073817;28;20081;-70
2022/12/15 06:05:05;;;;;;;0.20;0.20;;;;;;;-5.46;100.00;95554.16;5071344;28;20036;-72
2022/12/15 06:07:51;;;;;;;0.52;0.35;;;;;;;-5.56;100.00;95550.97;5069746;28;20039;-70
2022/12/15 06:10:37;;;;;;;2.20;1.30;;;;;;;-5.57;100.00;95551.13;5057650;28;20048;-71
2022/12/15 06:13:24;;;;;;;0.65;0.45;;;;;;;-5.54;100.00;95559.41;5059569;28;20456;-69
2022/12/15 06:16:18;;;;;;;0.20;0.20;;;;;;;-5.71;100.00;95570.91;5060530;28;20914;-71
2022/12/15 06:19:04;;;;;;;0.57;0.38;;;;;;;-5.78;100.00;95575.16;5073100;28;20140;-71
2022/12/15 06:21:50;;;;;;;0.20;0.20;;;;;;;-5.96;100.00;95576.25;5071932;28;20450;-73
2022/12/15 06:24:36;;;;;;;1.40;0.73;;;;;;;-6.34;100.00;95579.59;5072840;28;20067;-70
2022/12/15 06:27:23;;;;;;;0.63;0.43;;;;;;;-6.66;100.00;95576.03;5072893;28;20044;-72
2022/12/15 06:30:09;;;;;;;1.58;0.68;;;;;;;-6.72;100.00;95581.09;5072949;28;20472;-72
2022/12/15 06:32:55;;;;;;;0.32;0.30;;;;;;;-6.87;100.00;95581.72;5070057;28;20044;-70
2022/12/15 06:35:41;;;;;;;0.45;0.30;;;;;;;-6.86;100.00;95577.34;5056759;28;20044;-72
2022/12/15 06:38:28;;;;;;;0.30;0.30;;;;;;;-7.07;100.00;95591.66;5058828;28;20075;-69
2022/12/15 06:41:16;;;;;;;0.20;0.20;;;;;;;-7.04;100.00;95585.31;5073861;28;20035;-71
2022/12/15 06:44:03;;;;;;;0.20;0.20;;;;;;;-7.10;100.00;95585.94;5072398;28;20565;-71
2022/12/15 06:46:48;;;;;;;0.20;0.20;;;;;;;-7.20;100.00;95593.06;5072196;28;20294;-73
2022/12/15 06:49:34;;;;;;;0.20;0.20;;;;;;;-7.61;100.00;95599.00;5070808;28;20044;-73
2022/12/15 06:52:21;;;;;;;0.20;0.20;;;;;;;-7.95;100.00;95601.59;5074981;28;20062;-72
2022/12/15 06:55:07;;;;;;;0.20;0.20;;;;;;;-8.48;100.00;95596.59;5059441;28;20039;-73
2022/12/15 06:57:53;;;;;;;0.20;0.20;;;;;;;-8.55;100.00;95593.84;5068808;28;20141;-70
2022/12/15 07:00:41;;;;;;;0.20;0.20;;;;;;;-8.69;100.00;95596.16;5070935;28;20379;-72
2022/12/15 07:03:27;;;;;;;0.20;0.20;;;;;;;-8.62;100.00;95597.19;5072816;28;20435;-70
2022/12/15 07:06:15;;;;;;;0.20;0.20;;;;;;;-8.43;100.00;95600.38;5058907;28;20463;-71
2022/12/15 07:09:06;;;;;;;0.25;0.25;;;;;;;-8.65;100.00;95600.06;5073849;28;20140;-71
2022/12/15 07:11:53;;;;;;;;;;;;;;;-9.05;100.00;95584.03;5071860;28;20131;-74
2022/12/15 07:14:39;;;;;;;0.20;0.20;;;;;;;-8.88;100.00;95595.34;5072947;28;19916;-72
2022/12/15 07:17:24;;;;;;;0.20;0.20;;;;;;;-8.75;100.00;95593.19;5072703;28;20063;-73
2022/12/15 07:20:11;;;;;;;0.20;0.20;;;;;;;-8.95;100.00;95598.69;5071211;28;20507;-70
2022/12/15 07:22:56;;;;;;;0.20;0.20;;;;;;;-8.91;100.00;95602.63;5070180;28;20599;-70
2022/12/15 07:25:42;;;;;;;0.20;0.20;;;;;;;-8.76;100.00;95614.91;5072573;28;20571;-71
2022/12/15 07:28:29;;;;;;;0.20;0.20;;;;;;;-8.62;100.00;95608.38;5074594;27;20153;-71
2022/12/15 07:31:15;;;;;;;0.20;0.20;;;;;;;-8.68;100.00;95610.75;5083180;27;20146;-72
2022/12/15 07:34:01;;;;;;;0.20;0.20;;;;;;;-8.52;100.00;95618.66;5072625;28;20108;-73
2022/12/15 07:36:47;;;;;;;0.20;0.20;;;;;;;-8.49;100.00;95611.38;5058982;28;20047;-71
2022/12/15 07:39:33;;;;;;;0.20;0.20;;;;;;;-8.42;100.00;95612.38;5071771;28;20209;-73
2022/12/15 07:42:19;;;;;;;0.20;0.20;;;;;;;-8.61;100.00;95610.00;5071486;28;20570;-72
2022/12/15 07:45:06;;;;;;;0.20;0.20;;;;;;;-8.73;100.00;95612.00;5074239;28;20040;-72
2022/12/15 07:47:52;;;;;;;0.17;0.17;;;;;;;-8.68;100.00;95621.94;5061788;28;20328;-71
2022/12/15 07:50:41;;;;;;;0.20;0.20;;;;;;;-8.53;100.00;95619.63;5076127;28;20583;-71
2022/12/15 07:53:27;;;;;;;0.20;0.20;;;;;;;-8.67;100.00;95614.97;5077045;28;20040;-71
2022/12/15 07:56:14;;;;;;;0.20;0.20;;;;;;;-8.87;100.00;95629.88;5075672;28;20484;-70
2022/12/15 07:59:00;;;;;;;0.20;0.20;;;;;;;-8.74;100.00;95627.72;5076084;28;20087;-72
2022/12/15 08:01:46;;;;;;;0.15;0.15;;;;;;;-8.66;100.00;95637.34;5087015;27;20479;-72
2022/12/15 08:04:32;;;;;;;0.20;0.20;;;;;;;-8.78;100.00;95639.38;5067010;28;20075;-73
2022/12/15 08:07:18;;;;;;;0.20;0.20;;;;;;;-9.05;100.00;95632.47;5076900;28;20608;-72
2022/12/15 08:10:04;;;;;;;0.20;0.20;;;;;;;-9.10;100.00;95647.66;5074262;28;20044;-74
2022/12/15 08:12:51;;;;;;;0.20;0.20;;;;;;;-9.17;100.00;95647.44;5075216;28;20048;-71
2022/12/15 08:15:37;;;;;;;0.20;0.20;;;;;;;-8.92;100.00;95653.66;5075360;28;20040;-71
2022/12/15 08:18:23;;;;;;;0.20;0.20;;;;;;;-8.65;100.00;95652.75;5075504;28;20043;-71
2022/12/15 08:21:10;;;;;;;0.20;0.20;;;;;;;-8.38;100.00;95641.47;5089271;27;20090;-73
2022/12/15 08:23:56;;;;;;;0.20;0.20;;;;;;;-8.18;100.00;95635.06;5075347;28;20036;-74
2022/12/15 08:26:43;;;;;;;0.20;0.20;;;;;;;-8.35;100.00;95651.53;5066757;28;20040;-70
2022/12/15 08:29:29;;;;;;;0.20;0.20;;;;;;;-8.40;100.00;95652.94;5078138;28;20050;-73
2022/12/15 08:32:15;;;;;;;0.20;0.20;;;;;;;-8.38;100.00;95651.84;5074322;28;20063;-74
2022/12/15 08:35:00;;;;;;;0.20;0.20;;;;;;;-8.47;100.00;95642.38;5075088;28;20036;-73
2022/12/15 08:37:46;;;;;;;0.20;0.20;;;;;;;-8.50;100.00;95655.63;5075801;28;20078;-71
2022/12/15 08:40:32;;;;;;;0.20;0.20;;;;;;;-8.43;100.00;95652.28;5043220;28;20325;-74
2022/12/15 08:43:18;;;;;;;0.20;0.20;;;;;;;-8.76;100.00;95655.59;5061143;28;21717;-73
2022/12/15 08:46:05;;;;;;;0.20;0.20;;;;;;;-9.02;100.00;95653.75;5072229;28;20036;-72
2022/12/15 08:48:54;;;;;;;0.20;0.20;;;;;;;-9.09;100.00;95646.72;5073370;28;20043;-73
2022/12/15 08:51:39;;;;;;;0.20;0.20;;;;;;;-9.03;100.00;95648.69;5086378;27;20035;-74
2022/12/15 08:54:25;;;;;;;0.20;0.20;;;;;;;-8.91;100.00;95664.84;5072372;27;20056;-73
2022/12/15 08:57:11;;;;;;;0.20;0.20;;;;;;;-8.74;100.00;95677.81;5053506;28;20044;-72
2022/12/15 08:59:57;;;;;;;0.20;0.20;;;;;;;-8.97;100.00;95681.81;5072665;27;20043;-72
2022/12/15 09:02:44;;;;;;;0.22;0.22;;;;;;;-8.75;100.00;95683.16;5072119;28;20043;-72
2022/12/15 09:05:33;;;;;;;0.20;0.20;;;;;;;-8.47;100.00;95694.28;5073376;28;20040;-73
2022/12/15 09:08:19;;;;;;;0.30;0.30;;;;;;;-8.45;100.00;95697.53;5075338;28;20036;-72
2022/12/15 09:11:07;;;;;;;0.38;0.38;;;;;;;-8.15;100.00;95691.88;5071364;27;20101;-73
2022/12/15 09:13:54;;;;;;;0.30;0.30;;;;;;;-7.36;100.00;95693.44;5073310;28;20040;-74
2022/12/15 09:16:39;;;;;;;0.30;0.30;;;;;;;-5.79;100.00;95693.44;5066053;28;20101;-73
2022/12/15 09:19:25;;;;;;;0.50;0.40;;;;;;;-4.31;100.00;95682.13;5074164;28;20042;-73
2022/12/15 09:22:11;;;;;;;0.52;0.40;;;;;;;-3.46;100.00;95689.69;5066569;28;20043;-73
2022/12/15 09:24:57;;;;;;;0.63;0.40;;;;;;;-2.19;100.00;95690.97;5059986;28;20040;-73
2022/12/15 09:27:43;;;;;;;0.40;0.30;;;;;;;-1.07;100.00;95695.41;5073176;28;20149;-72
2022/12/15 09:30:31;;;;;;;0.40;0.40;;;;;;;-1.04;100.00;95689.78;5070168;28;20121;-75
2022/12/15 09:33:17;;;;;;;0.40;0.40;;;;;;;0.38;96.09;95684.41;5052197;28;20040;-74
2022/12/15 09:36:04;;;;;;;0.52;0.40;;;;;;;1.91;72.02;95675.78;5052153;28;20040;-72
2022/12/15 09:38:50;;;;;;;0.50;0.40;;;;;;;2.92;64.45;95684.47;5053800;28;20047;-73
2022/12/15 09:41:38;;;;;;;0.60;0.47;;;;;;;3.89;58.38;95677.38;5041553;28;20044;-74
2022/12/15 09:44:27;;;;;;;0.40;0.40;;;;;;;5.68;51.25;95682.22;5041151;28;20048;-75
2022/12/15 09:47:42;;;;;;;0.50;0.40;;;;;;;6.58;46.19;95668.19;5057530;28;20692;-72
2022/12/15 09:50:37;;;;;;;0.52;0.40;;;;;;;7.18;44.04;95668.25;5055305;28;20040;-72
2022/12/15 09:53:25;;;;;;;0.50;0.50;;;;;;;6.92;42.16;95660.97;5054998;28;20087;-75
2022/12/15 09:56:43;;;;;;;0.40;0.40;;;;;;;7.06;43.58;95675.53;5055245;28;20036;-75
2022/12/15 09:59:38;;;;;;;0.50;0.40;;;;;;;8.21;45.94;95662.22;5054689;28;20029;-76
2022/12/15 10:02:40;;;;;;;0.30;0.30;;;;;;;9.11;41.57;95669.34;5056040;28;20099;-75
2022/12/15 10:05:41;;;;;;;0.30;0.30;;;;;;;10.26;38.88;95674.63;5053755;28;20032;-74
2022/12/15 10:08:31;;;;;;;0.30;0.30;;;;;;;11.23;40.44;95674.59;5056286;28;20176;-75
2022/12/15 10:11:24;;;;;;;0.40;0.40;;;;;;;10.12;37.74;95688.75;5053558;28;20790;-75
2022/12/15 10:14:14;;;;;;;0.30;0.30;;;;;;;8.21;40.62;95691.53;5053243;28;20048;-76
2022/12/15 10:17:18;;;;;;;0.60;0.45;;;;;;;7.16;42.69;95670.38;5053842;28;20036;-75
2022/12/15 10:20:25;;;;;;;0.70;0.40;;;;;;;7.23;43.07;95686.13;5054099;28;20083;-75
2022/12/15 10:23:14;;;;;;;0.30;0.30;;;;;;;4.90;48.12;95692.31;5024935;28;20068;-76
2022/12/15 10:26:22;;;;;;;0.60;0.40;;;;;;;6.73;45.65;95692.34;5039635;28;20123;-74
2022/12/15 10:29:35;;;;;;;0.30;0.30;;;;;;;6.57;47.19;95678.00;5040352;28;20337;-75
2022/12/15 10:32:56;;;;;;;0.30;0.30;;;;;;;8.17;41.57;95693.91;5052748;28;20056;-76
2022/12/15 10:35:42;;;;;;;;;;;;;;;7.57;43.07;95694.84;5053384;28;20492;-73
2022/12/15 10:38:37;;;;;;;0.30;0.30;;;;;;;9.01;42.45;95684.50;5051772;28;19935;-74
2022/12/15 10:41:26;;;;;;;0.30;0.30;;;;;;;11.73;43.42;95680.88;5045001;28;20155;-76
2022/12/15 10:44:25;;;;;;;0.40;0.40;;;;;;;12.35;35.04;95682.19;5052335;28;20094;-76
2022/12/15 10:47:19;;;;;;;0.30;0.30;;;;;;;11.71;34.97;95683.03;5054987;28;20588;-76
2022/12/15 10:50:21;;;;;;;0.20;0.20;;;;;;;11.22;35.34;95691.75;5052667;28;20141;-76
2022/12/15 10:53:08;;;;;;;0.30;0.30;;;;;;;10.02;36.51;95692.19;5040206;28;20491;-75
2022/12/15 10:56:00;;;;;;;0.22;0.22;;;;;;;9.37;40.44;95698.88;5050424;28;20149;-75
2022/12/15 10:58:55;;;;;;;0.30;0.30;;;;;;;10.10;40.09;95689.00;4702569;28;10000301;-75
2022/12/15 11:01:41;;;;;;;0.30;0.30;;;;;;;8.97;40.65;95680.75;5049663;28;20119;-73
2022/12/15 11:04:31;;;;;;;0.20;0.20;;;;;;;8.63;39.23;95689.81;5051711;28;20122;-73
2022/12/15 11:07:16;;;;;;;0.20;0.20;;;;;;;10.16;37.38;95676.44;5050136;28;20063;-73
2022/12/15 11:10:21;;;;;;;0.30;0.30;;;;;;;10.69;36.48;95667.19;5053938;28;20123;-74
2022/12/15 11:13:16;;;;;;;0.30;0.30;;;;;;;9.98;37.14;95664.38;5050384;28;20043;-74
2022/12/15 11:16:16;;;;;;;0.20;0.20;;;;;;;10.01;37.83;95669.19;5050620;28;20425;-75
2022/12/15 11:19:15;;;;;;;0.30;0.30;;;;;;;11.16;39.17;95666.06;5052014;28;20036;-74
2022/12/15 11:22:13;;;;;;;0.28;0.28;;;;;;;12.98;37.01;95668.84;5036829;28;20326;-75
2022/12/15 11:25:28;;;;;;;0.40;0.40;;;;;;;15.72;32.23;95649.09;5049721;28;20090;-72
2022/12/15 11:28:24;;;;;;;0.30;0.30;;;;;;;15.69;28.96;95642.41;5049396;28;20127;-74
2022/12/15 11:31:37;;;;;;;0.30;0.30;;;;;;;13.83;32.63;95648.59;5051842;28;20455;-75
2022/12/15 11:34:36;;;;;;;0.30;0.30;;;;;;;15.75;29.60;95635.81;5052626;28;20036;-75
2022/12/15 11:37:39;;;;;;;0.20;0.20;;;;;;;16.97;28.89;95638.50;5051522;28;20052;-72
2022/12/15 11:40:38;;;;;;;0.20;0.20;;;;;;;17.17;29.80;95636.38;5052344;28;20545;-75
2022/12/15 11:43:39;;;;;;;0.28;0.28;;;;;;;18.10;29.18;95628.94;5052157;28;20762;-75
2022/12/15 11:46:58;;;;;;;0.20;0.20;;;;;;;19.54;26.26;95625.16;5039223;28;20783;-75
2022/12/15 11:50:16;;;;;;;0.20;0.20;;;;;;;17.24;27.27;95632.13;5049929;28;20048;-74
2022/12/15 11:53:18;;;;;;;0.25;0.25;;;;;;;18.03;27.59;95628.59;4697581;28;10000517;-75
2022/12/15 11:56:14;;;;;;;0.20;0.20;;;;;;;17.51;27.25;95624.94;5051306;28;20405;-76
2022/12/15 11:59:28;;;;;;;0.10;0.10;;;;;;;17.33;29.13;95624.03;5053592;28;20258;-75
2022/12/15 12:02:59;;;;;;;0.17;0.17;;;;;;;18.42;26.82;95626.09;5050977;28;20612;-75
2022/12/15 12:05:59;;;;;;;0.30;0.30;;;;;;;20.01;25.91;95604.97;5027160;28;20608;-75
2022/12/15 12:08:56;;;;;;;;;;;;;;;20.86;23.88;95603.88;5052404;28;20056;-75
2022/12/15 12:11:55;;;;;;;0.20;0.20;;;;;;;20.40;25.54;95610.31;5049141;28;19940;-75
2022/12/15 12:15:06;;;;;;;0.30;0.30;;;;;;;19.82;24.99;95603.78;5049141;28;20301;-75
2022/12/15 12:17:54;;;;;;;;;;;;;;;19.52;23.91;95595.59;5053569;28;20772;-74
2022/12/15 12:20:48;;;;;;;0.20;0.20;;;;;;;21.17;23.16;95584.34;5051173;28;19920;-75
2022/12/15 12:23:41;;;;;;;0.20;0.20;;;;;;;21.24;22.67;95575.59;5034527;28;20050;-76
2022/12/15 12:26:27;;;;;;;0.20;0.20;;;;;;;20.39;24.82;95582.34;4700115;28;10000374;-75
2022/12/15 12:29:27;;;;;;;0.25;0.25;;;;;;;22.25;22.92;95584.72;5061219;28;20471;-76
2022/12/15 12:32:33;;;;;;;0.20;0.20;;;;;;;21.45;23.16;95589.97;5052972;28;20049;-76
2022/12/15 12:35:43;;;;;;;0.20;0.20;;;;;;;19.95;22.77;95586.47;5053142;28;20079;-75
2022/12/15 12:38:37;;;;;;;0.10;0.10;;;;;;;18.47;24.93;95579.91;5047872;28;20044;-75
2022/12/15 12:41:43;;;;;;;0.00;0.00;;;;;;;14.88;30.26;95592.72;5053275;28;20727;-76
2022/12/15 12:44:36;;;;;;;0.10;0.10;;;;;;;11.28;34.64;95583.53;5052074;28;20205;-75
2022/12/15 12:47:28;;;;;;;0.10;0.10;;;;;;;8.62;41.73;95586.06;5053344;28;20059;-74
2022/12/15 12:50:20;;;;;;;0.10;0.10;;;;;;;9.01;42.55;95588.41;5036491;28;20372;-75
2022/12/15 12:53:24;;;;;;;0.10;0.10;;;;;;;9.11;42.10;95583.16;5052574;28;20040;-72
2022/12/15 12:56:28;;;;;;;0.10;0.10;;;;;;;8.77;43.17;95583.50;5053107;28;20156;-74
2022/12/15 12:59:30;;;;;;;0.10;0.10;;;;;;;8.24;45.19;95582.56;5052355;28;20059;-75
2022/12/15 13:02:23;;;;;;;0.10;0.10;;;;;;;7.57;48.52;95579.56;5054461;28;20312;-71
2022/12/15 13:05:34;;;;;;;0.10;0.10;;;;;;;7.27;51.31;95572.84;5053343;28;20040;-71
2022/12/15 13:08:47;;;;;;;0.10;0.10;;;;;;;7.10;52.04;95569.44;5054230;28;20129;-73
2022/12/15 13:11:51;;;;;;;0.10;0.10;;;;;;;6.79;53.85;95573.56;5043531;28;20530;-74
2022/12/15 13:14:46;;;;;;;0.10;0.10;;;;;;;6.49;53.67;95558.81;5047411;28;20690;-74
2022/12/15 13:17:40;;;;;;;0.10;0.10;;;;;;;5.83;59.15;95549.78;5054257;28;20036;-73
2022/12/15 13:20:30;;;;;;;0.10;0.10;;;;;;;5.28;58.19;95542.44;5054223;28;20291;-73
2022/12/15 13:23:23;;;;;;;0.10;0.10;;;;;;;4.61;56.06;95545.63;5056042;28;20098;-71
2022/12/15 13:26:09;;;;;;;0.10;0.10;;;;;;;4.77;65.71;95535.34;5055669;28;20059;-74
2022/12/15 13:28:56;;;;;;;0.10;0.10;;;;;;;4.95;65.85;95525.38;5054361;28;20098;-73
2022/12/15 13:31:47;;;;;;;0.10;0.10;;;;;;;4.72;71.62;95534.19;5053721;28;20042;-70
2022/12/15 13:34:39;;;;;;;0.10;0.10;;;;;;;4.71;71.40;95527.28;5055146;28;20075;-73
2022/12/15 13:37:54;;;;;;;0.20;0.20;;;;;;;4.56;74.85;95526.16;5068414;28;20040;-74
2022/12/15 13:40:43;;;;;;;0.10;0.10;;;;;;;4.00;80.29;95525.75;5043542;28;20036;-73
2022/12/15 13:43:42;;;;;;;0.20;0.20;;;;;;;3.67;85.06;95522.84;5051904;28;20040;-69
2022/12/15 13:46:32;;;;;;;0.10;0.10;;;;;;;3.82;86.16;95517.91;5052826;28;20055;-73
2022/12/15 13:49:30;;;;;;;0.20;0.20;;;;;;;3.67;86.42;95517.53;5055090;28;20052;-74
2022/12/15 13:52:50;;;;;;;0.10;0.10;;;;;;;3.70;88.65;95520.53;5053454;28;20294;-72
2022/12/15 13:55:47;;;;;;;0.10;0.10;;;;;;;3.57;86.02;95510.94;5053427;28;20512;-73
2022/12/15 13:58:40;;;;;;;0.10;0.10;;;;;;;3.23;88.24;95498.44;5054277;28;20068;-73
2022/12/15 14:01:28;;;;;;;0.10;0.10;;;;;;;3.40;88.26;95512.63;5053412;28;21136;-73
2022/12/15 14:04:15;;;;;;;0.10;0.10;;;;;;;3.57;85.67;95500.34;5037096;28;20320;-73
2022/12/15 14:07:01;;;;;;;0.10;0.10;;;;;;;3.69;84.13;95496.94;5053674;28;20138;-70
2022/12/15 14:09:49;;;;;;;0.38;0.10;;;;;;;3.71;80.20;95494.88;5054476;28;20113;-73
2022/12/15 14:12:38;;;;;;;0.20;0.20;;;;;;;3.53;79.58;95493.94;5054924;28;20508;-72
2022/12/15 14:15:29;;;;;;;0.10;0.10;;;;;;;3.48;80.78;95482.41;5031563;28;20486;-73
2022/12/15 14:18:41;;;;;;;0.20;0.20;;;;;;;3.41;81.00;95479.88;5054008;28;20555;-70
2022/12/15 14:21:29;;;;;;;0.20;0.20;;;;;;;3.21;83.52;95480.19;5065828;28;20036;-73
2022/12/15 14:24:23;;;;;;;0.20;0.20;;;;;;;2.48;92.88;95467.09;5053142;28;20048;-73
2022/12/15 14:27:08;;;;;;;0.10;0.10;;;;;;;2.51;92.56;95470.13;5041310;28;20552;-74
2022/12/15 14:30:13;;;;;;;0.10;0.10;;;;;;;2.39;92.17;95477.16;5054472;28;20340;-73
2022/12/15 14:33:10;;;;;;;0.10;0.10;;;;;;;2.05;93.89;95483.84;5055721;28;20048;-74
2022/12/15 14:35:58;;;;;;;0.10;0.10;;;;;;;2.10;94.36;95491.91;5052263;28;20325;-74
2022/12/15 14:38:52;;;;;;;0.10;0.10;;;;;;;1.63;98.92;95486.28;5052739;28;20436;-72
2022/12/15 14:41:45;;;;;;;0.15;0.15;;;;;;;1.01;100.00;95487.94;5054762;28;20642;-74
2022/12/15 14:44:34;;;;;;;0.10;0.10;;;;;;;0.88;100.00;95489.84;5039036;28;20043;-74
2022/12/15 14:47:29;;;;;;;0.13;0.13;;;;;;;0.91;100.00;95486.75;5056141;28;20048;-74
2022/12/15 14:50:16;;;;;;;0.10;0.10;;;;;;;0.91;94.10;95490.19;5041725;28;20978;-71
2022/12/15 14:53:12;;;;;;;0.20;0.20;;;;;;;0.76;91.79;95494.94;5052787;28;20042;-73
2022/12/15 14:56:21;;;;;;;0.10;0.10;;;;;;;0.38;84.75;95508.06;5052673;28;20096;-74
2022/12/15 14:59:19;;;;;;;0.10;0.10;;;;;;;0.07;82.79;95498.22;5046852;28;20040;-72
2022/12/15 15:02:18;;;;;;;0.10;0.10;;;;;;;0.11;81.32;95502.88;5053113;28;20482;-71
2022/12/15 15:05:22;;;;;;;0.10;0.10;;;;;;;0.05;81.80;95511.59;5051383;28;20552;-73
2022/12/15 15:08:21;;;;;;;0.17;0.17;;;;;;;0.13;87.14;95523.72;5052929;28;20047;-74
2022/12/15 15:11:28;;;;;;;0.10;0.10;;;;;;;-0.10;86.76;95532.06;5054853;28;20086;-73
2022/12/15 15:14:24;;;;;;;0.10;0.10;;;;;;;-0.48;89.43;95537.13;5051960;28;20126;-74
2022/12/15 15:17:13;;;;;;;0.10;0.10;;;;;;;-0.39;92.32;95547.25;5054370;28;20090;-72
2022/12/15 15:20:02;;;;;;;0.10;0.10;;;;;;;-0.64;95.18;95548.84;5057944;28;20040;-74
2022/12/15 15:23:02;;;;;;;0.10;0.10;;;;;;;-0.70;97.45;95541.75;5050508;28;20101;-73
2022/12/15 15:25:55;;;;;;;0.10;0.10;;;;;;;-1.07;98.70;95549.16;5038575;28;20555;-72
2022/12/15 15:28:43;;;;;;;0.10;0.10;;;;;;;-1.23;100.00;95549.53;5051730;28;20048;-72
2022/12/15 15:31:37;;;;;;;0.10;0.10;;;;;;;-1.70;100.00;95559.00;5063591;28;20048;-74
2022/12/15 15:34:23;;;;;;;0.20;0.20;;;;;;;-1.92;100.00;95570.59;5057124;28;20150;-72
2022/12/15 15:37:21;;;;;;;0.20;0.20;;;;;;;-2.10;100.00;95574.50;5072552;28;20048;-73
2022/12/15 15:40:15;;;;;;;0.13;0.13;;;;;;;-2.33;100.00;95579.16;5074997;28;20092;-71
2022/12/15 15:43:03;;;;;;;0.10;0.10;;;;;;;-2.63;100.00;95588.97;5027995;28;20221;-72
2022/12/15 15:45:59;;;;;;;0.10;0.10;;;;;;;-2.88;100.00;95570.19;5069360;28;20111;-74
2022/12/15 15:48:49;;;;;;;0.10;0.10;;;;;;;-3.05;100.00;95590.56;5070153;28;20139;-73
2022/12/15 15:51:35;;;;;;;0.10;0.10;;;;;;;-3.31;100.00;95604.16;5030140;28;20035;-75